createdAt,value
2023-09-27T00:02:36.662Z,55.60
2023-09-27T00:16:05.127Z,55.90
2023-09-27T00:19:21.040Z,56.00
2023-09-27T00:26:01.674Z,56.10
2023-09-27T00:35:37.238Z,56.20
2023-09-27T00:38:37.375Z,56.10
2023-09-27T00:41:38.005Z,56.50
2023-09-27T00:44:47.897Z,56.50
2023-09-27T00:47:43.895Z,56.60
2023-09-27T00:50:28.463Z,56.60
2023-09-27T00:53:44.369Z,56.60
2023-09-27T00:59:57.051Z,56.60
2023-09-27T01:02:31.885Z,56.40
2023-09-27T01:05:11.239Z,56.50
2023-09-27T01:07:45.684Z,56.60
2023-09-27T01:10:19.504Z,56.50
2023-09-27T01:12:53.436Z,56.40
2023-09-27T01:15:30.305Z,56.40
2023-09-27T01:18:04.724Z,56.50
2023-09-27T01:20:39.122Z,56.50
2023-09-27T01:23:15.504Z,56.40
2023-09-27T01:25:56.937Z,57.00
2023-09-27T01:28:36.089Z,56.50
2023-09-27T01:31:10.056Z,56.40
2023-09-27T01:33:43.923Z,56.40
2023-09-27T01:36:17.642Z,56.50
2023-09-27T01:38:53.359Z,56.50
2023-09-27T01:41:27.424Z,56.60
2023-09-27T01:44:01.131Z,56.50
2023-09-27T01:46:35.017Z,56.50
2023-09-27T01:49:08.730Z,56.50
2023-09-27T01:51:42.619Z,56.50
2023-09-27T01:54:18.279Z,56.50
2023-09-27T01:56:51.746Z,56.50
2023-09-27T01:59:25.923Z,56.40
2023-09-27T02:01:59.815Z,56.50
2023-09-27T02:04:33.760Z,56.50
2023-09-27T02:07:07.714Z,56.50
2023-09-27T02:09:43.035Z,56.50
2023-09-27T02:12:16.701Z,56.40
2023-09-27T02:14:50.296Z,56.40
2023-09-27T02:17:23.875Z,56.40
2023-09-27T02:19:58.025Z,56.40
2023-09-27T02:22:32.231Z,56.40
2023-09-27T02:25:11.464Z,56.40
2023-09-27T02:27:45.733Z,56.50
2023-09-27T02:30:19.382Z,56.40
2023-09-27T02:32:54.044Z,56.30
2023-09-27T02:35:28.957Z,56.30
2023-09-27T02:38:03.225Z,56.30
2023-09-27T02:40:38.231Z,56.30
2023-09-27T02:43:11.830Z,56.30
2023-09-27T02:45:46.866Z,56.30
2023-09-27T02:48:20.515Z,56.30
2023-09-27T02:50:54.983Z,56.30
2023-09-27T02:53:28.856Z,56.30
2023-09-27T02:56:06.416Z,56.30
2023-09-27T02:58:40.418Z,56.40
2023-09-27T03:01:13.850Z,56.40
2023-09-27T03:03:47.885Z,56.30
2023-09-27T03:06:21.263Z,56.40
2023-09-27T03:08:55.298Z,56.50
2023-09-27T03:11:30.594Z,56.60
2023-09-27T03:14:04.638Z,56.60
2023-09-27T03:16:38.679Z,56.90
2023-09-27T03:19:12.723Z,56.90
2023-09-27T03:21:45.992Z,56.90
2023-09-27T03:24:19.866Z,56.80
2023-09-27T03:26:55.105Z,56.80
2023-09-27T03:29:29.039Z,56.90
2023-09-27T03:32:02.927Z,56.90
2023-09-27T03:34:37.924Z,56.90
2023-09-27T03:37:11.665Z,57.00
2023-09-27T03:39:45.264Z,56.90
2023-09-27T03:42:20.327Z,57.00
2023-09-27T03:44:55.698Z,57.00
2023-09-27T03:47:31.267Z,57.00
2023-09-27T03:50:05.531Z,57.10
2023-09-27T03:52:39.029Z,57.20
2023-09-27T03:55:14.036Z,57.20
2023-09-27T03:57:49.207Z,57.20
2023-09-27T04:00:24.852Z,57.30
2023-09-27T04:02:59.771Z,57.50
2023-09-27T04:05:35.668Z,57.50
2023-09-27T04:08:09.874Z,57.50
2023-09-27T04:10:43.426Z,57.30
2023-09-27T04:13:18.310Z,57.50
2023-09-27T04:15:52.279Z,57.60
2023-09-27T04:18:26.118Z,57.70
2023-09-27T04:21:08.806Z,57.70
2023-09-27T04:23:44.196Z,57.80
2023-09-27T04:26:17.772Z,57.80
2023-09-27T04:28:53.642Z,57.60
2023-09-27T04:31:29.371Z,57.70
2023-09-27T04:34:03.030Z,57.70
2023-09-27T04:36:37.079Z,57.70
2023-09-27T04:39:12.389Z,57.60
2023-09-27T04:41:47.557Z,57.60
2023-09-27T04:44:23.048Z,57.70
2023-09-27T04:46:56.796Z,57.60
2023-09-27T04:49:30.572Z,57.60
2023-09-27T04:52:04.366Z,57.40
2023-09-27T04:54:38.232Z,57.50
2023-09-27T04:57:11.785Z,57.50
2023-09-27T04:59:47.055Z,57.50
2023-09-27T05:02:21.014Z,57.60
2023-09-27T05:04:54.778Z,57.40
2023-09-27T05:07:28.692Z,57.40
2023-09-27T05:10:02.520Z,57.30
2023-09-27T05:12:36.308Z,57.30
2023-09-27T05:15:12.632Z,57.30
2023-09-27T05:17:47.644Z,57.40
2023-09-27T05:20:21.492Z,57.30
2023-09-27T05:22:55.382Z,57.30
2023-09-27T05:25:29.789Z,57.30
2023-09-27T05:28:03.594Z,57.30
2023-09-27T05:30:39.258Z,57.30
2023-09-27T05:33:12.750Z,57.20
2023-09-27T05:35:46.925Z,57.20
2023-09-27T05:38:22.053Z,57.40
2023-09-27T05:40:55.994Z,57.50
2023-09-27T05:43:29.540Z,57.50
2023-09-27T05:46:04.948Z,57.60
2023-09-27T05:48:39.002Z,57.70
2023-09-27T05:51:12.766Z,57.70
2023-09-27T05:53:48.310Z,57.70
2023-09-27T05:56:22.272Z,57.80
2023-09-27T05:58:56.297Z,58.10
2023-09-27T06:01:33.247Z,58.20
2023-09-27T06:04:07.659Z,58.30
2023-09-27T06:06:41.632Z,58.30
2023-09-27T06:09:15.657Z,58.30
2023-09-27T06:11:49.727Z,58.30
2023-09-27T06:14:23.347Z,58.30
2023-09-27T06:16:59.439Z,58.30
2023-09-27T06:19:33.529Z,58.30
2023-09-27T06:22:07.944Z,58.50
2023-09-27T06:24:43.520Z,58.70
2023-09-27T06:27:17.954Z,58.70
2023-09-27T06:29:51.856Z,58.80
2023-09-27T06:32:27.451Z,58.70
2023-09-27T06:35:01.145Z,58.70
2023-09-27T06:37:34.775Z,58.80
2023-09-27T06:40:10.535Z,59.00
2023-09-27T06:42:44.369Z,59.20
2023-09-27T06:45:18.433Z,59.30
2023-09-27T06:47:53.634Z,59.40
2023-09-27T06:50:27.693Z,59.30
2023-09-27T06:53:15.781Z,59.20
2023-09-27T06:55:55.296Z,59.10
2023-09-27T06:58:29.812Z,59.10
2023-09-27T07:01:03.564Z,59.10
2023-09-27T07:03:39.346Z,59.00
2023-09-27T07:06:13.115Z,58.90
2023-09-27T07:08:53.550Z,58.60
2023-09-27T07:11:27.430Z,58.70
2023-09-27T07:14:01.616Z,58.80
2023-09-27T07:16:43.336Z,58.80
2023-09-27T07:19:25.938Z,58.80
2023-09-27T07:22:00.496Z,58.80
2023-09-27T07:24:34.573Z,59.00
2023-09-27T07:27:08.160Z,58.80
2023-09-27T07:29:42.835Z,58.90
2023-09-27T07:32:17.197Z,59.00
2023-09-27T07:34:54.535Z,59.20
2023-09-27T07:37:28.422Z,59.30
2023-09-27T07:40:02.458Z,59.50
2023-09-27T07:42:36.175Z,59.80
2023-09-27T07:45:15.559Z,60.00
2023-09-27T07:47:51.522Z,60.20
2023-09-27T07:50:29.736Z,60.30
2023-09-27T07:53:05.316Z,60.50
2023-09-27T07:55:48.112Z,60.50
2023-09-27T07:58:22.381Z,60.70
2023-09-27T08:00:56.053Z,60.80
2023-09-27T08:03:29.943Z,60.80
2023-09-27T08:06:05.779Z,61.20
2023-09-27T08:08:39.322Z,61.90
2023-09-27T08:11:14.755Z,61.90
2023-09-27T08:13:48.868Z,61.80
2023-09-27T08:16:22.478Z,61.40
2023-09-27T08:18:57.240Z,61.10
2023-09-27T08:21:32.070Z,61.00
2023-09-27T08:24:06.082Z,60.60
2023-09-27T08:26:40.021Z,60.20
2023-09-27T08:29:15.014Z,59.90
2023-09-27T08:31:49.696Z,59.90
2023-09-27T08:34:23.431Z,59.90
2023-09-27T08:36:59.367Z,59.80
2023-09-27T08:39:33.494Z,59.60
2023-09-27T08:42:07.610Z,59.30
2023-09-27T08:44:42.316Z,58.90
2023-09-27T08:47:17.286Z,58.50
2023-09-27T08:49:52.025Z,58.40
2023-09-27T08:52:28.417Z,58.50
2023-09-27T08:55:05.269Z,58.50
2023-09-27T08:57:40.704Z,58.40
2023-09-27T09:00:21.605Z,58.40
2023-09-27T09:03:00.389Z,58.20
2023-09-27T09:05:34.503Z,58.30
2023-09-27T09:08:10.555Z,58.30
2023-09-27T09:10:47.178Z,58.70
2023-09-27T09:13:24.390Z,58.50
2023-09-27T09:15:58.612Z,58.80
2023-09-27T09:18:34.613Z,58.90
2023-09-27T09:21:15.490Z,59.20
2023-09-27T09:23:51.298Z,58.80
2023-09-27T09:26:31.036Z,58.30
2023-09-27T09:29:09.251Z,57.80
2023-09-27T09:31:54.728Z,58.00
2023-09-27T09:34:27.326Z,58.00
2023-09-27T09:37:01.336Z,57.80
2023-09-27T09:39:37.456Z,57.70
2023-09-27T09:42:11.158Z,57.30
2023-09-27T09:44:44.789Z,57.60
2023-09-27T09:47:18.731Z,56.90
2023-09-27T09:49:52.456Z,56.40
2023-09-27T09:52:31.082Z,56.40
2023-09-27T09:55:24.042Z,56.10
2023-09-27T09:58:22.889Z,56.80
2023-09-27T10:00:59.272Z,56.10
2023-09-27T10:03:35.696Z,55.70
2023-09-27T10:06:12.285Z,55.60
2023-09-27T10:08:49.204Z,55.10
2023-09-27T10:11:26.253Z,54.60
2023-09-27T10:14:01.488Z,54.50
2023-09-27T10:16:36.067Z,54.50
2023-09-27T10:19:09.609Z,54.50
2023-09-27T10:22:06.442Z,54.60
2023-09-27T10:24:45.208Z,54.20
2023-09-27T10:27:20.227Z,54.20
2023-09-27T10:30:23.028Z,53.90
2023-09-27T10:33:34.336Z,52.60
2023-09-27T10:36:34.313Z,52.10
2023-09-27T10:39:07.937Z,52.80
2023-09-27T10:41:49.920Z,53.00
2023-09-27T10:44:33.422Z,52.70
2023-09-27T10:47:10.469Z,52.50
2023-09-27T10:49:44.756Z,52.20
2023-09-27T10:52:20.046Z,52.50
2023-09-27T10:54:53.709Z,52.70
2023-09-27T10:57:28.168Z,52.40
2023-09-27T11:00:05.738Z,51.80
2023-09-27T11:02:39.690Z,51.40
2023-09-27T11:05:13.554Z,50.80
2023-09-27T11:07:49.534Z,50.50
2023-09-27T11:10:34.430Z,51.40
2023-09-27T11:13:11.859Z,50.20
2023-09-27T11:15:47.627Z,49.10
2023-09-27T11:18:21.257Z,48.50
2023-09-27T11:20:54.980Z,48.70
2023-09-27T11:23:28.913Z,48.50
2023-09-27T11:26:06.105Z,49.10
2023-09-27T11:28:40.042Z,48.30
2023-09-27T11:31:24.556Z,48.20
2023-09-27T11:34:14.373Z,47.90
2023-09-27T11:36:49.661Z,47.20
2023-09-27T11:39:30.653Z,47.50
2023-09-27T11:42:04.814Z,47.00
2023-09-27T11:44:39.079Z,47.90
2023-09-27T11:47:14.904Z,47.60
2023-09-27T11:49:51.953Z,47.20
2023-09-27T11:52:25.492Z,47.30
2023-09-27T11:54:59.332Z,47.70
2023-09-27T11:57:33.266Z,47.50
2023-09-27T12:00:09.503Z,47.70
2023-09-27T12:02:56.268Z,47.50
2023-09-27T12:05:31.491Z,47.50
2023-09-27T12:08:05.684Z,47.30
2023-09-27T12:10:39.941Z,47.90
2023-09-27T12:13:13.531Z,47.80
2023-09-27T12:15:47.106Z,47.60
2023-09-27T12:18:22.218Z,47.80
2023-09-27T12:20:57.359Z,47.70
2023-09-27T12:23:32.605Z,47.70
2023-09-27T12:26:06.503Z,47.50
2023-09-27T12:28:40.011Z,47.90
2023-09-27T12:31:13.813Z,47.80
2023-09-27T12:33:49.265Z,47.90
2023-09-27T12:36:23.223Z,47.30
2023-09-27T12:38:57.083Z,47.30
2023-09-27T12:41:30.633Z,47.80
2023-09-27T12:44:04.669Z,47.10
2023-09-27T12:46:38.139Z,47.40
2023-09-27T12:49:13.353Z,46.60
2023-09-27T12:51:49.897Z,47.20
2023-09-27T12:54:24.173Z,47.40
2023-09-27T12:56:59.354Z,47.20
2023-09-27T12:59:33.308Z,47.10
2023-09-27T13:02:07.632Z,46.80
2023-09-27T13:04:44.457Z,46.40
2023-09-27T13:07:18.632Z,46.60
2023-09-27T13:09:52.502Z,46.20
2023-09-27T13:12:25.889Z,46.20
2023-09-27T13:14:59.983Z,46.70
2023-09-27T13:17:33.852Z,46.60
2023-09-27T13:20:11.788Z,46.40
2023-09-27T13:22:45.740Z,46.00
2023-09-27T13:25:20.400Z,46.40
2023-09-27T13:27:53.805Z,46.30
2023-09-27T13:30:35.295Z,47.30
2023-09-27T13:33:10.670Z,46.50
2023-09-27T13:35:46.280Z,46.50
2023-09-27T13:38:20.657Z,46.00
2023-09-27T13:40:54.312Z,45.90
2023-09-27T13:43:30.025Z,45.70
2023-09-27T13:46:06.961Z,45.90
2023-09-27T13:48:40.729Z,45.60
2023-09-27T13:51:15.833Z,46.00
2023-09-27T13:53:49.807Z,46.50
2023-09-27T13:56:23.548Z,45.90
2023-09-27T13:58:57.515Z,46.00
2023-09-27T14:01:31.726Z,45.90
2023-09-27T14:04:06.680Z,46.10
2023-09-27T14:06:41.888Z,46.20
2023-09-27T14:09:15.736Z,46.30
2023-09-27T14:11:49.340Z,46.60
2023-09-27T14:14:23.275Z,46.20
2023-09-27T14:16:59.428Z,46.50
2023-09-27T14:19:32.929Z,46.20
2023-09-27T14:22:08.481Z,46.10
2023-09-27T14:24:42.430Z,46.40
2023-09-27T14:27:16.405Z,46.30
2023-09-27T14:29:50.480Z,46.60
2023-09-27T14:32:24.461Z,46.30
2023-09-27T14:34:58.850Z,46.50
2023-09-27T14:37:34.632Z,46.70
2023-09-27T14:40:11.241Z,46.20
2023-09-27T14:42:44.683Z,46.50
2023-09-27T14:45:31.563Z,46.00
2023-09-27T14:48:07.773Z,45.90
2023-09-27T14:50:41.955Z,46.00
2023-09-27T14:53:16.876Z,46.00
2023-09-27T14:55:51.674Z,45.70
2023-09-27T14:58:25.293Z,46.00
2023-09-27T15:00:58.784Z,46.30
2023-09-27T15:03:32.783Z,46.10
2023-09-27T15:06:08.350Z,45.90
2023-09-27T15:08:44.366Z,46.10
2023-09-27T15:11:24.647Z,46.10
2023-09-27T15:13:59.739Z,45.90
2023-09-27T15:16:35.435Z,46.20
2023-09-27T15:19:09.489Z,46.00
2023-09-27T15:21:43.242Z,46.00
2023-09-27T15:24:18.551Z,45.80
2023-09-27T15:26:51.985Z,46.30
2023-09-27T15:29:25.460Z,46.10
2023-09-27T15:31:59.012Z,45.90
2023-09-27T15:34:35.924Z,46.50
2023-09-27T15:37:11.401Z,46.20
2023-09-27T15:39:46.564Z,46.50
2023-09-27T15:42:19.930Z,46.70
2023-09-27T15:44:53.730Z,47.00
2023-09-27T15:47:27.170Z,47.00
2023-09-27T15:50:00.936Z,46.60
2023-09-27T15:52:36.187Z,47.00
2023-09-27T15:55:13.163Z,47.00
2023-09-27T15:57:46.844Z,46.90
2023-09-27T16:00:20.705Z,47.30
2023-09-27T16:02:54.183Z,47.20
2023-09-27T16:05:27.782Z,47.30
2023-09-27T16:08:01.247Z,47.30
2023-09-27T16:10:39.668Z,46.90
2023-09-27T16:13:23.968Z,47.00
2023-09-27T16:15:57.567Z,47.20
2023-09-27T16:18:32.425Z,47.00
2023-09-27T16:21:06.373Z,47.10
2023-09-27T16:23:39.910Z,47.30
2023-09-27T16:26:16.130Z,47.40
2023-09-27T16:28:50.132Z,47.50
2023-09-27T16:31:27.101Z,47.60
2023-09-27T16:34:02.040Z,47.80
2023-09-27T16:36:35.797Z,47.70
2023-09-27T16:39:13.159Z,47.80
2023-09-27T16:41:48.620Z,48.00
2023-09-27T16:44:22.776Z,48.10
2023-09-27T16:46:57.891Z,48.20
2023-09-27T16:49:32.254Z,48.30
2023-09-27T16:52:06.340Z,48.60
2023-09-27T16:54:39.961Z,48.50
2023-09-27T16:57:14.958Z,48.70
2023-09-27T16:59:48.696Z,48.70
2023-09-27T17:02:22.928Z,48.80
2023-09-27T17:04:57.737Z,48.90
2023-09-27T17:07:34.333Z,49.00
2023-09-27T17:10:11.549Z,49.10
2023-09-27T17:12:49.260Z,49.20
2023-09-27T17:15:23.281Z,49.20
2023-09-27T17:17:57.647Z,49.30
2023-09-27T17:20:31.717Z,49.40
2023-09-27T17:23:05.791Z,49.50
2023-09-27T17:25:39.410Z,49.50
2023-09-27T17:28:14.730Z,49.60
2023-09-27T17:30:48.513Z,49.70
2023-09-27T17:33:22.147Z,49.80
2023-09-27T17:36:00.804Z,49.80
2023-09-27T17:38:34.602Z,49.90
2023-09-27T17:41:08.544Z,50.00
2023-09-27T17:43:44.378Z,50.00
2023-09-27T17:46:25.025Z,50.10
2023-09-27T17:49:03.434Z,50.30
2023-09-27T17:51:38.437Z,50.20
2023-09-27T17:54:13.481Z,50.30
2023-09-27T17:56:47.248Z,50.40
2023-09-27T17:59:22.676Z,50.40
2023-09-27T18:01:56.629Z,50.50
2023-09-27T18:04:30.373Z,50.60
2023-09-27T18:07:04.020Z,50.70
2023-09-27T18:09:39.060Z,50.70
2023-09-27T18:12:13.764Z,50.80
2023-09-27T18:14:49.101Z,50.90
2023-09-27T18:17:23.136Z,50.90
2023-09-27T18:19:57.971Z,50.90
2023-09-27T18:22:32.622Z,51.00
2023-09-27T18:25:07.633Z,51.20
2023-09-27T18:27:42.601Z,51.20
2023-09-27T18:30:20.227Z,51.30
2023-09-27T18:32:53.948Z,51.40
2023-09-27T18:35:27.776Z,51.40
2023-09-27T18:38:01.985Z,51.40
2023-09-27T18:40:38.402Z,51.60
2023-09-27T18:43:12.013Z,51.50
2023-09-27T18:45:50.673Z,51.70
2023-09-27T18:48:24.506Z,51.70
2023-09-27T18:50:59.605Z,51.80
2023-09-27T18:53:33.411Z,51.90
2023-09-27T18:56:08.493Z,51.90
2023-09-27T18:58:42.519Z,51.90
2023-09-27T19:01:18.132Z,52.10
2023-09-27T19:03:53.673Z,52.10
2023-09-27T19:06:27.338Z,52.10
2023-09-27T19:09:02.805Z,52.10
2023-09-27T19:11:37.302Z,52.10
2023-09-27T19:14:13.845Z,52.10
2023-09-27T19:16:50.984Z,52.30
2023-09-27T19:19:24.435Z,52.40
2023-09-27T19:21:58.052Z,52.40
2023-09-27T19:24:36.977Z,52.60
2023-09-27T19:27:10.856Z,52.70
2023-09-27T19:29:47.544Z,52.70
2023-09-27T19:32:24.255Z,52.80
2023-09-27T19:34:58.393Z,52.90
2023-09-27T19:37:32.077Z,52.90
2023-09-27T19:40:07.405Z,53.00
2023-09-27T19:42:43.776Z,53.00
2023-09-27T19:45:18.084Z,52.90
2023-09-27T19:47:58.222Z,53.10
2023-09-27T19:50:32.157Z,53.10
2023-09-27T19:53:07.816Z,53.00
2023-09-27T19:55:41.918Z,53.10
2023-09-27T19:58:17.526Z,53.10
2023-09-27T20:00:52.903Z,53.20
2023-09-27T20:03:28.338Z,53.20
2023-09-27T20:06:04.141Z,53.30
2023-09-27T20:08:37.998Z,53.20
2023-09-27T20:11:11.520Z,53.20
2023-09-27T20:13:45.527Z,53.10
2023-09-27T20:16:19.455Z,53.30
2023-09-27T20:18:55.261Z,53.40
2023-09-27T20:21:29.349Z,53.40
2023-09-27T20:24:10.809Z,53.40
2023-09-27T20:26:45.042Z,53.40
2023-09-27T20:29:18.780Z,53.40
2023-09-27T20:31:53.169Z,53.50
2023-09-27T20:34:28.928Z,53.50
2023-09-27T20:37:02.968Z,53.50
2023-09-27T20:39:36.734Z,53.50
2023-09-27T20:42:10.848Z,53.50
2023-09-27T20:44:45.386Z,53.50
2023-09-27T20:47:18.876Z,53.60
2023-09-27T20:49:54.217Z,53.70
2023-09-27T20:52:28.095Z,53.70
2023-09-27T20:55:20.761Z,53.80
2023-09-27T20:57:57.690Z,54.20
2023-09-27T21:00:32.137Z,53.90
2023-09-27T21:03:06.686Z,53.90
2023-09-27T21:05:43.750Z,54.00
2023-09-27T21:08:17.507Z,53.90
2023-09-27T21:10:51.460Z,54.00
2023-09-27T21:13:29.425Z,54.00
2023-09-27T21:16:05.659Z,54.40
2023-09-27T21:18:39.368Z,54.00
2023-09-27T21:21:15.457Z,54.10
2023-09-27T21:23:51.838Z,53.90
2023-09-27T21:26:25.881Z,54.10
2023-09-27T21:29:00.180Z,54.10
2023-09-27T21:31:34.349Z,53.90
2023-09-27T21:34:08.839Z,54.10
2023-09-27T21:36:44.597Z,53.90
2023-09-27T21:39:19.195Z,54.10
2023-09-27T21:41:52.596Z,53.90
2023-09-27T21:44:26.506Z,53.90
2023-09-27T21:47:00.295Z,53.90
2023-09-27T21:49:34.131Z,54.10
2023-09-27T21:52:09.484Z,53.90
2023-09-27T21:54:43.086Z,54.00
2023-09-27T21:57:16.637Z,54.60
2023-09-27T21:59:50.194Z,54.00
2023-09-27T22:02:23.793Z,53.90
2023-09-27T22:04:58.970Z,53.90
2023-09-27T22:07:35.449Z,53.90
2023-09-27T22:10:10.823Z,54.40
2023-09-27T22:12:44.429Z,54.10
2023-09-27T22:15:18.624Z,53.90
2023-09-27T22:17:56.328Z,53.90
2023-09-27T22:20:31.073Z,54.00
2023-09-27T22:23:07.868Z,53.90
2023-09-27T22:25:45.098Z,53.80
2023-09-27T22:28:20.261Z,53.80
2023-09-27T22:30:54.621Z,53.60
2023-09-27T22:33:31.026Z,53.80
2023-09-27T22:36:04.782Z,53.80
2023-09-27T22:38:40.952Z,53.60
2023-09-27T22:41:17.229Z,53.60
2023-09-27T22:43:50.842Z,53.40
2023-09-27T22:46:24.665Z,53.50
2023-09-27T22:48:58.225Z,53.70
2023-09-27T22:51:31.938Z,53.60
2023-09-27T22:54:08.693Z,53.50
2023-09-27T22:56:43.267Z,53.50
2023-09-27T22:59:18.210Z,53.40
2023-09-27T23:01:56.785Z,53.30
2023-09-27T23:04:30.828Z,53.40
2023-09-27T23:07:05.968Z,53.20
2023-09-27T23:09:42.220Z,53.20
2023-09-27T23:12:20.689Z,53.20
2023-09-27T23:15:12.975Z,53.10
2023-09-27T23:18:01.589Z,53.10
2023-09-27T23:20:35.773Z,53.10
2023-09-27T23:23:17.706Z,53.00
2023-09-27T23:25:55.839Z,53.00
2023-09-27T23:28:41.567Z,53.00
2023-09-27T23:31:14.360Z,53.00
2023-09-27T23:33:50.708Z,52.90
2023-09-27T23:36:27.008Z,52.90
2023-09-27T23:39:18.344Z,52.90
2023-09-27T23:41:56.811Z,52.80
2023-09-27T23:44:31.433Z,52.70
2023-09-27T23:47:05.488Z,52.70
2023-09-27T23:49:43.216Z,52.80
2023-09-27T23:52:16.637Z,52.80
2023-09-27T23:54:50.285Z,52.60
2023-09-27T23:57:29.271Z,52.70
